South Londonderry, VT (05155)

5:47 PM EDT on August 03, 2015 (GMT -0400)
A Stone Wall Inn | | Change Station
CLOSE
Current Station
Personal Weather Station
Location: Windham, VT
Elevation: 1952 ft
Nearby Weather Stations

Elev 1952 ft 43.21 °N, 72.72 °W | Updated 3 minutes ago

Overcast
Overcast
65.3 °F
Feels Like 65.3 °F
N
0.0
Wind Variable Wind from South
Gusts 0.0 mph

Today
High -- | Low -- °F
--% Chance of Precip.
Yesterday
High -- | Low -- °F
Precip. -- in
5:43 AM 8:10 PM
Waning Gibbous, 84% visible
Pressure 29.74 in
Visibility 3.0 miles
Clouds Scattered Clouds 5000 ft
Mostly Cloudy 7000 ft
Overcast 9500 ft
Dew Point 63 °F
Humidity 93%
Rainfall 0.05 in
Snow Depth Not available.
UV 1.0 out of 12
Pollen 8.40 out of 12
Air Quality Not available.
Flu Activity Not available.
SPECI KVSF 032117Z AUTO 30012G24KT 3SM -TSRA SCT050 BKN070 OVC095 20/16 A2974 RMK AO2 PK WND 27040/2101 WSHFT 2053 LTG DSNT ALQDS RAB2058 P0011 T02000156

More Conditions Fewer Conditions

Pressure 29.74 in
Visibility 3.0 miles
Clouds Scattered Clouds 5000 ft
Mostly Cloudy 7000 ft
Overcast 9500 ft
Dew Point 63 °F
Humidity 93%
Rainfall 0.05 in
Snow Depth Not available.
UV 1.0 out of 12
Pollen 8.40 out of 12
Air Quality Not available.
Flu Activity Not available.
SPECI KVSF 032117Z AUTO 30012G24KT 3SM -TSRA SCT050 BKN070 OVC095 20/16 A2974 RMK AO2 PK WND 27040/2101 WSHFT 2053 LTG DSNT ALQDS RAB2058 P0011 T02000156

More Conditions Fewer Conditions

10-Day Weather Forecast

×

Almanac

Astronomy

Aug. 03, 2015 Rise Set
Actual Time
Civil Twilight
Nautical Twilight
Astronomical Twilight
Moon
Length of Visible Light
Length of Day
Tomorrow will be .
, % of the Moon is Illuminated

Today's Extremes

State Highs State Lows

Community

WunderPhotos

Upload Photos

1,843,770 photos uploaded!

WunderBlogs® & News

Nearby

Air Quality

  Air Quality AQ Index Pollutant
Not available.

Snow Depth

Station Depth Elevation

Earthquake Activity

City Distance Mag. Time & Date
Minimum magnitude displayed is 2.5.

Coastal Water Temperatures

Place Temperature

Stations

Nearby Weather Stations

Station Location Temp. Windchill Dew Point Humidity Wind Precip. Elev Updated Type